Flight Track Log - Related Links

Times and Time Zones

All times are in EDT time to prevent confusion due to time zone crossing. See the ASQ6115 flight status page for this flight to view local times or setup timezone preferences in your user account.

Time Position Orientation Groundspeed Altitude Reporting Facility
EDT Latitude Longitude Course Direction KTS MPH feet Rate Location/Type
Thu 06:07:02 PM 42.0000 -87.9833 14° North 214 246 3,800  Level Chicago TRACON
Thu 06:08:02 PM 42.0500 -88.0333 323° Northwest 256 295 5,100 1,748 Climbing Chicago TRACON
Thu 06:09:00 PM 42.3044 -87.7947 10° North  Level FlightAware Approximate
Thu 06:09:09 PM 42.1364 -88.0519 351° North 274 315 7,500  Level Chicago Center
Thu 06:10:00 PM 42.3863 -87.7667 North  Level FlightAware Approximate
Thu 06:10:11 PM 42.2147 -88.0539 359° North 280 322 10,100  Level Chicago Center
Thu 06:11:00 PM 42.4708 -87.7450 16° North  Level FlightAware Approximate
Thu 06:11:13 PM 42.3053 -88.0522 North 303 349 12,800  Level Chicago Center
Thu 06:12:00 PM 42.5667 -87.7167 14° North  Level FlightAware Approximate
Thu 06:12:15 PM 42.3875 -88.0481 North 312 359 14,600  Level Chicago Center
Thu 06:13:18 PM 42.4861 -88.0464 North 352 405 15,600 1,344 Climbing Chicago Center
Thu 06:14:20 PM 42.5903 -88.0358 North 371 427 17,400 1,742 Climbing Chicago Center
Thu 06:15:22 PM 42.7092 -87.9669 23° Northeast 418 481 19,200 1,597 Climbing Chicago Center
Thu 06:16:24 PM 42.8022 -87.8769 35° Northeast 414 476 20,700 1,500 Climbing Chicago Center
Thu 06:17:26 PM 42.9011 -87.7839 35° Northeast 426 490 22,300 1,113 Climbing Chicago Center
Thu 06:18:28 PM 42.9939 -87.6753 41° Northeast 455 524 23,000 339 Climbing Chicago Center
Thu 06:19:30 PM 43.0150 -87.4964 81° East 480 552 23,000  Level Chicago Center
Thu 06:20:33 PM 43.0331 -87.2869 83° East 490 564 23,000  Level Chicago Center
Thu 06:21:35 PM 43.0531 -87.1022 82° East 491 565 23,000  Level Chicago Center
Thu 06:22:37 PM 43.0744 -86.9194 81° East 491 565 23,000  Level Chicago Center
Thu 06:23:39 PM 43.0939 -86.7372 82° East 489 563 23,000  Level Chicago Center
Thu 06:24:41 PM 43.1136 -86.5525 82° East 489 563 23,000  Level Chicago Center
Thu 06:25:43 PM 43.1378 -86.3303 81° East 490 564 23,000  Level Chicago Center
Thu 06:26:45 PM 43.1564 -86.1417 82° East 494 568 23,000  Level Chicago Center
Thu 06:27:47 PM 43.1767 -85.9506 82° East 494 568 23,000  Level Chicago Center
Thu 06:28:49 PM 43.1953 -85.7617 82° East 494 568 23,000  Level Chicago Center
Thu 06:29:52 PM 43.2131 -85.5769 82° East 492 566 23,000  Level Chicago Center
Thu 06:30:54 PM 43.2322 -85.3908 82° East 492 566 23,000  Level Chicago Center
Thu 06:31:56 PM 43.2411 -85.2067 86° East 486 559 23,000  Level Chicago Center
Thu 06:32:58 PM 43.2128 -85.0306 102° East 469 540 23,000  Level Chicago Center
Thu 06:34:00 PM 43.1733 -84.8217 104° East 472 543 23,000  Level Chicago Center
Thu 06:35:02 PM 43.1417 -84.6483 104° East 469 540 23,000  Level Chicago Center
Thu 06:36:04 PM 43.1083 -84.4753 105° East 470 541 23,000 -629 Level Chicago Center
Thu 06:37:06 PM 43.0753 -84.3033 105° East 470 541 21,700 -1,968 Descending Chicago Center
Thu 06:38:09 PM 43.0431 -84.1361 105° East 457 526 18,900 -2,750 Descending Chicago Center
Thu 06:38:42 PM 43.0206 -84.0292 106° East 433 498 17,300 -2,831 Descending Cleveland Center
Thu 06:39:38 PM 42.9933 -83.8872 105° East 432 497 14,700 -2,850 Descending Cleveland Center
Thu 06:40:02 PM 42.9633 -83.8350 128° Southeast 382 440 13,500 -2,129 Descending Cleveland Center
Thu 06:40:40 PM 42.9239 -83.7875 139° Southeast 376 433 12,500 -1,279 Descending Cleveland Center
Thu 06:41:03 PM 42.8850 -83.7661 158° South 309 356 12,200 -484 Descending Cleveland Center
Thu 06:41:42 PM 42.8472 -83.7425 155° Southeast 310 357 12,000 -197 Descending Cleveland Center
Thu 06:42:04 PM 42.8111 -83.7208 156° South 281 323 12,000 -484 Level Cleveland Center
Thu 06:42:44 PM 42.7728 -83.6975 156° South 297 342 11,500 -984 Descending Cleveland Center
Thu 06:43:05 PM 42.7350 -83.6756 157° South 292 336 11,000 -1,161 Descending Cleveland Center
Thu 06:43:46 PM 42.6989 -83.6536 156° South 295 339 10,300 -1,258 Descending Cleveland Center
Thu 06:44:07 PM 42.6592 -83.6275 154° Southeast 287 330 9,700 -1,355 Descending Cleveland Center
Thu 06:44:48 PM 42.6325 -83.5622 119° Southeast 309 356 8,900 -1,300 Descending Cleveland Center
Thu 06:45:07 PM 42.6169 -83.5247 119° Southeast 303 349 8,400 -1,258 Descending Cleveland Center
Thu 06:45:50 PM 42.5936 -83.4628 117° Southeast 302 348 7,600 -968 Descending Cleveland Center
Thu 06:46:09 PM 42.5806 -83.4289 118° Southeast 270 311 7,400 -774 Descending Cleveland Center
Thu 06:46:52 PM 42.5694 -83.3714 105° East 271 312 6,800 -984 Descending Cleveland Center
Thu 06:47:10 PM 42.5686 -83.3392 92° East 238 274 6,400 -1,161 Descending Cleveland Center
Thu 06:47:54 PM 42.5708 -83.2803 87° East 245 282 5,600 -1,279 Descending Cleveland Center
Thu 06:48:11 PM 42.5606 -83.2531 117° Southeast 228 262 5,100 -1,258 Descending Cleveland Center
Thu 06:48:56 PM 42.5361 -83.2131 130° Southeast 228 262 4,300 -1,082 Descending Cleveland Center
Thu 06:49:12 PM 42.5114 -83.2122 179° South 195 224 4,000 -286 Descending Cleveland Center
Thu 06:49:59 PM 42.4803 -83.2119 180° South 207 238 4,000  Level Cleveland Center
Thu 06:50:13 PM 42.4547 -83.2128 181° South 202 232 4,000  Level Cleveland Center
Thu 06:51:01 PM 42.4150 -83.2272 195° South 214 246 4,000  Level Cleveland Center
Thu 06:51:14 PM 42.4028 -83.2367 210° Southwest 202 232 4,000 -194 Level Cleveland Center
Thu 06:52:03 PM 42.3656 -83.2631 208° Southwest 203 234 3,800 -492 Descending Cleveland Center
Thu 06:52:15 PM 42.3517 -83.2719 205° Southwest 205 236 3,500 -1,065 Descending Cleveland Center
Thu 06:53:05 PM 42.3169 -83.2994 210° Southwest 203 234 2,700 -1,000 Descending Cleveland Center
Thu 06:53:15 PM 42.3050 -83.3078 207° Southwest 185 213 2,500 -774 Descending Cleveland Center
Thu 06:54:07 PM 42.2778 -83.3275 208° Southwest 174 200 1,900 -684 Descending Cleveland Center
Thu 06:55:09 PM 42.2472 -83.3503 209° Southwest 141 162 1,200 -387 Descending Cleveland Center
Thu 06:56:11 PM 42.2175 -83.3739 210° Southwest 138 159 1,100 -97 Descending Cleveland Center

Login

Don't have an account? Register now (free) for customized features, flight alerts, and more!